1993 C19293:HSK0493 (1992331S11082)


On this page: IBTrACS data - Map and Plots - Positions - Intensities - Original source data

Summary

Start Nov 26
End Dec 11
Basin SI
LMI 35 kt
Sources jtwc_sh
reunion
neumann
In WMO? Yes
Previous storm 1992 3-C (EP)
Previous in basin 1993 BABIE (SI)
Concurrent storms 1992 GAY (EP)
1993 C19293 (SI)
1992 MISSING (NI)
1993 JONI (SP)
Next in basin 1993 KEN (SI)
Next storm 1992 MISSING (NI)

top of page IBTrACS Data: File Access

Image of storm

top of page Plots:

Map of storm track will not appear if FTP is down
Time series of cyclone Maximum Sustained Wind will not appear if FTP is down
Time series of cyclone Minimum Central Pressure will not appear if FTP is down

top of page Track Data:Position

jtwc_sh reunion neumann
Date Lat Lon Lat Lon Lat Lon
1992-11-26 00:00:00 -10.5 82.4 -10.5 82.4
1992-11-26 06:00:00 -10.5 82.1 -10.5 82.1
1992-11-26 12:00:00 -10.6 81.8 -10.6 81.8
1992-11-26 18:00:00 -10.6 81.6 -10.6 81.6
1992-11-27 00:00:00 -10.6 81.4 -10.6 81.4
1992-11-27 06:00:00 -10.6 81.2 -10.6 81.2
1992-11-27 12:00:00 -10.5 81.0 -10.5 81.0
1992-11-27 18:00:00 -10.4 80.6 -10.4 80.6
1992-11-28 00:00:00 -10.4 80.1 -10.4 80.1
1992-11-28 06:00:00 -10.4 79.6 -10.4 79.6
1992-11-28 12:00:00 -10.4 79.1 -10.4 79.1
1992-11-28 18:00:00 -10.5 78.6 -10.5 78.6
1992-11-29 00:00:00 -10.5 78.1 -10.5 78.1
1992-11-29 06:00:00 -10.6 77.6 -10.6 77.6
1992-11-29 12:00:00 -10.7 76.9 -10.7 76.9
1992-11-29 18:00:00 -10.9 76.2 -10.9 76.2
1992-11-30 00:00:00 -10.9 75.7 -10.9 75.7
1992-11-30 06:00:00 -10.9 75.2 -10.9 75.2
1992-11-30 12:00:00 -10.9 74.7 -10.9 74.7
1992-11-30 18:00:00 -10.7 74.0 -10.7 74.0
1992-12-01 00:00:00 -10.6 73.3 -10.6 73.3
1992-12-01 06:00:00 -10.4 72.6 -10.4 72.6
1992-12-01 12:00:00 -10.2 71.8 -10.2 71.8
1992-12-01 18:00:00 -10.0 71.1 -10.0 71.1
1992-12-02 00:00:00 -9.8 70.2 -9.8 70.2
jtwc_sh reunion neumann
1992-12-02 06:00:00 -9.6 69.0 -9.6 69.0
1992-12-02 12:00:00 -9.4 67.7 -9.4 67.7
1992-12-02 18:00:00 -9.5 66.5 -9.5 66.5
1992-12-03 00:00:00 -9.6 65.2 -9.6 65.2
1992-12-03 06:00:00 -9.7 64.0 -9.7 64.0
1992-12-03 12:00:00 -9.9 63.0 -9.9 63.0
1992-12-03 18:00:00 -10.0 62.1 -10.0 62.1
1992-12-04 00:00:00 -10.0 61.4 -10.0 61.4
1992-12-04 06:00:00 -10.0 60.6 -10.0 60.6
1992-12-04 12:00:00 -10.0 59.9 -10.0 59.9
1992-12-04 18:00:00 -10.0 59.2 -8.5 60.4 -10.0 59.2
1992-12-05 00:00:00 -9.9 58.5 -8.5 59.2 -9.9 58.5
1992-12-05 06:00:00 -9.9 57.7 -8.4 58.0 -9.9 57.7
1992-12-05 12:00:00 -9.8 56.9 -8.3 56.8 -9.8 56.9
1992-12-05 18:00:00 -9.8 56.0 -8.2 55.6 -9.8 56.0
1992-12-06 00:00:00 -9.7 55.0 -8.2 54.5 -9.7 55.0
1992-12-06 06:00:00 -9.6 53.9 -8.1 53.6 -9.6 53.9
1992-12-06 12:00:00 -9.4 52.9 -8.1 52.3 -9.4 52.9
1992-12-06 18:00:00 -9.2 52.0 -8.0 51.4 -9.2 52.0
1992-12-07 00:00:00 -8.9 51.2 -8.0 50.7 -8.9 51.2
1992-12-07 06:00:00 -8.7 50.5 -8.1 49.9 -8.7 50.5
1992-12-07 12:00:00 -8.6 49.9 -8.2 49.3 -8.6 49.9
1992-12-07 18:00:00 -8.6 49.3 -8.5 48.5 -8.6 49.3
1992-12-08 00:00:00 -8.6 48.7 -8.7 48.1 -8.6 48.7
jtwc_sh reunion neumann
1992-12-08 06:00:00 -8.6 48.1 -8.8 47.8 -8.6 48.1
1992-12-08 12:00:00 -8.5 47.6 -8.7 47.0 -8.5 47.6
1992-12-08 18:00:00 -8.5 47.1 -8.5 47.1 -8.5 47.1
1992-12-09 00:00:00 -8.5 46.6 -8.5 47.0 -8.5 46.6
1992-12-09 06:00:00 -8.5 46.1 -8.4 46.5 -8.5 46.1
1992-12-09 12:00:00 -8.4 45.6 -8.8 46.2 -8.4 45.6
1992-12-09 18:00:00 -8.4 45.2 -8.6 46.0 -8.4 45.2
1992-12-10 00:00:00 -8.4 44.7 -8.1 45.2 -8.4 44.7
1992-12-10 06:00:00 -8.2 44.1 -8.0 44.4 -8.2 44.1
1992-12-10 12:00:00 -7.8 43.5 -7.8 43.5
1992-12-10 18:00:00 -7.2 43.1 -7.2 43.1
1992-12-11 00:00:00 -6.6 42.9 -6.6 42.9

top of pageTrack Data:Intensity

jtwc_sh reunion neumann
Date Wind Pres Wind Pres Wind Pres
1992-11-26 00:00:00 15. 15.
1992-11-26 06:00:00 15. 15.
1992-11-26 12:00:00 15. 15.
1992-11-26 18:00:00 15. 15.
1992-11-27 00:00:00 15. 15.
1992-11-27 06:00:00 15. 15.
1992-11-27 12:00:00 15. 15.
1992-11-27 18:00:00 15. 15.
1992-11-28 00:00:00 15. 15.
1992-11-28 06:00:00 15. 15.
1992-11-28 12:00:00 15. 15.
1992-11-28 18:00:00 15. 15.
1992-11-29 00:00:00 15. 15.
1992-11-29 06:00:00 15. 15.
1992-11-29 12:00:00 15. 15.
1992-11-29 18:00:00 15. 15.
1992-11-30 00:00:00 15. 15.
1992-11-30 06:00:00 15. 15.
1992-11-30 12:00:00 15. 15.
1992-11-30 18:00:00 15. 15.
1992-12-01 00:00:00 15. 15.
1992-12-01 06:00:00 15. 15.
1992-12-01 12:00:00 15. 15.
1992-12-01 18:00:00 15. 15.
1992-12-02 00:00:00 25. 25.
jtwc_sh reunion neumann
1992-12-02 06:00:00 25. 25.
1992-12-02 12:00:00 25. 25.
1992-12-02 18:00:00 25. 25.
1992-12-03 00:00:00 25. 25.
1992-12-03 06:00:00 25. 25.
1992-12-03 12:00:00 25. 25.
1992-12-03 18:00:00 25. 25.
1992-12-04 00:00:00 25. 25.
1992-12-04 06:00:00 25. 25.
1992-12-04 12:00:00 20. 20.
1992-12-04 18:00:00 20. 20. 1006. 20.
1992-12-05 00:00:00 20. 20. 1006. 20.
1992-12-05 06:00:00 20. 20. 1006. 20.
1992-12-05 12:00:00 20. 20. 1006. 20.
1992-12-05 18:00:00 25. 20. 1006. 25.
1992-12-06 00:00:00 25. 20. 1006. 25.
1992-12-06 06:00:00 25. 20. 1004. 25.
1992-12-06 12:00:00 25. 20. 1004. 25.
1992-12-06 18:00:00 25. 23. 1002. 25.
1992-12-07 00:00:00 25. 23. 1002. 25.
1992-12-07 06:00:00 30. 24. 1000. 30.
1992-12-07 12:00:00 30. 27. 998. 30.
1992-12-07 18:00:00 35. 28. 997. 35.
1992-12-08 00:00:00 35. 28. 997. 35.
jtwc_sh reunion neumann
1992-12-08 06:00:00 35. 27. 998. 35.
1992-12-08 12:00:00 35. 27. 998. 35.
1992-12-08 18:00:00 35. 27. 998. 35.
1992-12-09 00:00:00 35. 27. 998. 35.
1992-12-09 06:00:00 30. 23. 1000. 30.
1992-12-09 12:00:00 30. 23. 1000. 30.
1992-12-09 18:00:00 30. 23. 1000. 30.
1992-12-10 00:00:00 30. 21. 1002. 30.
1992-12-10 06:00:00 25. 20. 1005. 25.
1992-12-10 12:00:00 25. 25.
1992-12-10 18:00:00 25. 25.
1992-12-11 00:00:00 25. 25.

top of page Links to source data

Source Source file Format
jtwc_sh bsh041993.txt ATCF
reunion WMO-Best-Tracks.txt:Line=15895:c19293 WMO (old format)
neumann tracks.sh:Storm=956:HSK0493:BSH041993:JTWC HURDAT